Flight Track Log - Related Links

Times and Time Zones

All times are in EDT time to prevent confusion due to time zone crossing. See the DAL268 flight status page for this flight to view local times or setup timezone preferences in your user account.

Time Position Orientation Groundspeed Altitude Reporting Facility
EDT Latitude Longitude Course Direction KTS MPH feet Rate Location/Type
Fri 12:00:21 AM 40.6350 -73.7830 North  Level FlightAware
Fri 12:04:00 AM 40.5000 -73.3755 90° East  Level FlightAware
Fri 12:07:00 AM 40.4943 -73.3496 114° Southeast  Level FlightAware
Fri 12:08:00 AM 40.4484 -73.1796 119° Southeast  Level FlightAware
Fri 12:24:00 AM 40.5000 -73.3694 90° East  Level FlightAware
Fri 12:25:00 AM 40.4533 -73.1998 105° East  Level FlightAware
Fri 12:25:32 AM 40.6480 -73.7790 105° East 84 97  Level FlightAware
Fri 12:25:52 AM 40.6380 -73.7870 211° Southwest 150 173 714 Level FlightAware
Fri 12:26:14 AM 40.6240 -73.7990 213° Southwest 176 203 500 1,625 Climbing FlightAware
Fri 12:26:40 AM 40.6050 -73.8130 209° Southwest 181 208 1,300 1,565 Climbing FlightAware
Fri 12:27:00 AM 40.5890 -73.8250 210° Southwest 198 228 1,700 1,050 Climbing FlightAware
Fri 12:27:20 AM 40.5720 -73.8370 208° Southwest 226 260 2,000 938 Climbing FlightAware
Fri 12:27:32 AM 40.5600 -73.8440 204° Southwest 239 275 2,200 632 Climbing FlightAware
Fri 12:27:39 AM 40.5520 -73.8460 191° South 249 287 2,200  Level FlightAware
Fri 12:27:48 AM 40.5430 -73.8450 175° South 260 299 2,200 750 Level FlightAware
Fri 12:27:55 AM 40.5340 -73.8410 161° South 266 306 2,400 1,600 Climbing FlightAware
Fri 12:28:03 AM 40.5250 -73.8350 153° Southeast 271 312 2,600 1,333 Climbing FlightAware
Fri 12:28:13 AM 40.5150 -73.8220 135° Southeast 281 323 2,800 1,412 Climbing FlightAware
Fri 12:28:37 AM 40.4980 -73.7870 123° Southeast 297 342 3,400 1,500 Climbing FlightAware
Fri 12:28:45 AM 40.4950 -73.7730 106° East 301 346 3,600 1,846 Climbing FlightAware
Fri 12:28:50 AM 40.4950 -73.7650 90° East 303 349 3,800 2,222 Climbing FlightAware
Fri 12:29:12 AM 40.5002 -73.7234 81° East 305 351 4,600 2,108 Climbing FlightAware
Fri 12:29:27 AM 40.5053 -73.6960 76° East 309 356 5,100 2,129 Climbing FlightAware
Fri 12:29:43 AM 40.5106 -73.6684 76° East 311 358 5,700 2,323 Climbing FlightAware
Fri 12:29:58 AM 40.5159 -73.6395 76° East 314 361 6,300 2,200 Climbing FlightAware
Fri 12:30:13 AM 40.5209 -73.6115 77° East 317 365 6,800 2,200 Climbing FlightAware
Fri 12:30:28 AM 40.5259 -73.5832 77° East 319 367 7,400 2,516 Climbing FlightAware
Fri 12:30:44 AM 40.5312 -73.5524 77° East 318 366 8,100 2,077 Climbing FlightAware
Fri 12:30:54 AM 40.5336 -73.5344 80° East 322 371 8,300 1,286 Climbing FlightAware
Fri 12:30:58 AM 40.5343 -73.5263 84° East 326 375 8,400 1,500 Climbing FlightAware
Fri 12:31:02 AM 40.5346 -73.5182 87° East 328 377 8,500 1,333 Climbing FlightAware
Fri 12:31:07 AM 40.5346 -73.5085 90° East 330 380 8,600 1,200 Climbing FlightAware
Fri 12:31:12 AM 40.5341 -73.4990 94° East 331 381 8,700 2,000 Climbing FlightAware
Fri 12:31:16 AM 40.5330 -73.4897 99° East 331 381 8,900 2,250 Climbing FlightAware
Fri 12:31:20 AM 40.5315 -73.4821 105° East 331 381 9,000 1,500 Climbing FlightAware
Fri 12:31:24 AM 40.5300 -73.4756 107° East 331 381 9,100 2,100 Climbing FlightAware
Fri 12:31:40 AM 40.5207 -73.4453 112° Southeast 333 383 9,700 1,957 Climbing FlightAware
Fri 12:32:10 AM 40.4771 -73.3721 128° Southeast 345 397 10,600 1,500 Climbing FlightAware
Fri 12:32:40 AM 40.4603 -73.3115 110° East 363 418 11,200 1,180 Climbing FlightAware
Fri 12:33:11 AM 40.4414 -73.2463 111° Southeast 385 443 11,800 1,048 Climbing FlightAware
Fri 12:33:43 AM 40.4201 -73.1744 111° Southeast 409 471 12,300 1,406 Climbing FlightAware
Fri 12:34:15 AM 40.3978 -73.0998 111° Southeast 419 482 13,300 1,967 Climbing FlightAware
Fri 12:34:44 AM 40.3773 -73.0290 111° Southeast 429 494 14,300 1,833 Climbing FlightAware
Fri 12:34:51 AM 40.3736 -73.0104 105° East 434 499 14,400 1,500 Climbing FlightAware
Fri 12:35:00 AM 40.3716 -72.9880 97° East 438 504 14,700 2,000 Climbing FlightAware
Fri 12:35:15 AM 40.3728 -72.9470 88° East 443 510 15,200 1,826 Climbing FlightAware
Fri 12:35:23 AM 40.3760 -72.9257 79° East 446 513 15,400 2,000 Climbing FlightAware
Fri 12:35:54 AM 40.3939 -72.8461 74° East 452 520 16,500 1,869 Climbing FlightAware
Fri 12:36:24 AM 40.4124 -72.7662 73° East 460 529 17,300 1,672 Climbing FlightAware
Fri 12:36:55 AM 40.4365 -72.6852 69° East 467 537 18,200 1,839 Climbing FlightAware
Fri 12:37:26 AM 40.4641 -72.6057 65° Northeast 471 542 19,200 1,770 Climbing FlightAware
Fri 12:37:56 AM 40.4928 -72.5270 64° Northeast 477 549 20,000 1,425 Climbing FlightAware
Fri 12:38:46 AM 40.5400 -72.3990 64° Northeast 488 562 21,100 1,400 Climbing FlightAware
Fri 12:38:56 AM 40.5515 -72.3679 64° Northeast 477 549 21,400 1,125 Climbing FlightAware
Fri 12:39:34 AM 40.5894 -72.2645 64° Northeast 506 582 22,000 1,185 Climbing FlightAware
Fri 12:40:17 AM 40.6331 -72.1442 64° Northeast 512 589 23,000 1,297 Climbing FlightAware
Fri 12:40:48 AM 40.6649 -72.0570 64° Northeast 520 598 23,600 1,292 Climbing FlightAware
Fri 12:41:22 AM 40.7010 -71.9576 64° Northeast 523 602 24,400 1,307 Climbing FlightAware
Fri 12:42:29 AM 40.7711 -71.7627 65° Northeast 534 615 25,800 1,113 Climbing FlightAware
Fri 12:42:59 AM 40.8030 -71.6740 65° Northeast 540 621 26,200 578 Climbing FlightAware
Fri 12:43:52 AM 40.8560 -71.5270 64° Northeast 545 627 26,600 267 Climbing FlightAware
Fri 12:44:29 AM 40.8910 -71.4330 64° Northeast 545 627 26,600 904 Level FlightAware
Fri 12:45:05 AM 40.9330 -71.3110 65° Northeast 556 640 27,700 2,060 Climbing FlightAware
Fri 12:45:36 AM 40.9720 -71.1990 65° Northeast 554 638 28,900 1,690 Climbing FlightAware
Fri 12:46:16 AM 41.0162 -71.0727 65° Northeast 558 642 29,700 1,129 Climbing FlightAware
Fri 12:47:01 AM 41.0650 -70.9330 65° Northeast 555 639 30,500 918 Climbing FlightAware
Fri 12:47:41 AM 41.1080 -70.8090 65° Northeast 558 642 31,000 366 Climbing FlightAware
Fri 12:48:23 AM 41.1460 -70.6970 66° East 558 642 31,000  Level FlightAware
Fri 12:48:59 AM 41.1830 -70.5910 65° Northeast 559 643 31,000  Level FlightAware
Fri 12:49:35 AM 41.2150 -70.4950 66° East 559 643 31,000  Level FlightAware
Fri 12:50:12 AM 41.2480 -70.3960 66° East 559 643 31,000  Level FlightAware
Fri 12:50:48 AM 41.2800 -70.3000 66° East 559 643 31,000  Level FlightAware
Fri 12:51:24 AM 41.3130 -70.2030 66° East 559 643 31,000  Level FlightAware
Fri 12:52:00 AM 41.3450 -70.1070 66° East 559 643 31,000  Level FlightAware
Fri 12:52:36 AM 41.3770 -70.0110 66° East 559 643 31,000  Level FlightAware
Fri 12:53:12 AM 41.4090 -69.9140 66° East 559 643 31,000  Level FlightAware
Fri 12:53:48 AM 41.4410 -69.8180 66° East 559 643 31,000  Level FlightAware
Fri 12:54:24 AM 41.4730 -69.7220 66° East 559 643 31,000  Level FlightAware
Fri 12:55:00 AM 41.5060 -69.6250 66° East 559 643 31,000  Level FlightAware
Fri 12:55:36 AM 41.5380 -69.5280 66° East 559 643 31,000  Level FlightAware
Fri 12:56:13 AM 41.5710 -69.4290 66° East 559 643 31,000  Level FlightAware
Fri 12:56:49 AM 41.6030 -69.3320 66° East 559 643 31,000  Level FlightAware
Fri 12:57:25 AM 41.6350 -69.2360 66° East 559 643 31,000  Level FlightAware
Fri 12:58:01 AM 41.6670 -69.1390 66° East 559 643 31,000  Level FlightAware
Fri 12:59:58 AM 41.8780 -68.4950 66° East 553 636 31,000  Level FlightAware
Fri 01:00:57 AM 41.9400 -68.3030 66° East 552 635 31,000  Level FlightAware
Fri 01:01:27 AM 41.9710 -68.2040 67° East 551 634 31,000  Level FlightAware
Fri 01:02:12 AM 42.0160 -68.0610 67° East 552 635 31,000  Level FlightAware
Fri 01:02:47 AM 42.0480 -67.9570 67° East 554 638 31,000  Level FlightAware
Fri 01:03:22 AM 42.0860 -67.8360 67° East 553 636 31,000  Level FlightAware
Fri 01:03:57 AM 42.1180 -67.7320 67° East 553 636 31,000  Level FlightAware
Fri 01:04:29 AM 42.1470 -67.6410 67° East 552 635 31,000  Level FlightAware
Fri 01:05:07 AM 42.1790 -67.5380 67° East 552 635 31,000  Level FlightAware
Fri 01:05:43 AM 42.2090 -67.4410 67° East 552 635 31,000  Level FlightAware
Fri 01:06:19 AM 42.2400 -67.3440 67° East 552 635 31,000  Level FlightAware
Fri 01:06:55 AM 42.2710 -67.2470 67° East 552 635 31,000  Level FlightAware
Fri 01:07:31 AM 42.3010 -67.1500 67° East 552 635 31,000  Level FlightAware
Fri 01:08:01 AM 42.3550 -66.9500 70° East 555 639 31,000  Level FlightAware
Fri 01:08:44 AM 42.3900 -66.8340 68° East 555 639 31,000  Level FlightAware
Fri 01:09:20 AM 42.4190 -66.7350 68° East 555 639 31,000  Level FlightAware
Fri 01:09:51 AM 42.4580 -66.6060 68° East 555 639 31,000  Level FlightAware
Fri 01:10:28 AM 42.4880 -66.5040 68° East 555 639 31,000  Level FlightAware
Fri 01:11:11 AM 42.5340 -66.3540 67° East 554 638 31,000  Level FlightAware
Fri 01:11:46 AM 42.5690 -66.2320 69° East 554 638 31,000  Level FlightAware
Fri 01:12:22 AM 42.6050 -66.1100 68° East 553 636 31,000  Level FlightAware
Fri 01:12:52 AM 42.6310 -66.0230 68° East 553 636 31,000  Level FlightAware
Fri 01:13:28 AM 42.6680 -65.8960 68° East 552 635 31,000  Level FlightAware
Fri 01:14:15 AM 42.7050 -65.7650 69° East 552 635 31,000  Level FlightAware
Fri 01:14:51 AM 42.7330 -65.6660 69° East 552 635 31,000  Level FlightAware
Fri 01:15:25 AM 42.7720 -65.5330 68° East 550 633 31,000  Level FlightAware
Fri 01:16:03 AM 42.8010 -65.4280 69° East 550 633 31,000  Level FlightAware
Fri 01:16:39 AM 42.8410 -65.2890 69° East 548 631 31,000  Level FlightAware
Fri 01:17:11 AM 42.8710 -65.1830 69° East 547 629 31,000  Level FlightAware
Fri 01:17:56 AM 42.9130 -65.0330 69° East 547 629 31,000  Level FlightAware
Fri 01:18:41 AM 42.9530 -64.8910 69° East 546 628 31,000  Level FlightAware
Fri 01:19:11 AM 42.9780 -64.7980 70° East 545 627 31,000  Level FlightAware
Fri 01:19:56 AM 43.0200 -64.6450 69° East 544 626 31,000  Level FlightAware
Fri 01:20:31 AM 43.0510 -64.5340 69° East 544 626 31,000  Level FlightAware
Fri 01:21:06 AM 43.0800 -64.4270 70° East 544 626 31,000  Level FlightAware
Fri 01:21:41 AM 43.1120 -64.3100 69° East 544 626 31,000  Level FlightAware
Fri 01:22:11 AM 43.1380 -64.2140 70° East 545 627 31,000  Level FlightAware
Fri 01:22:51 AM 43.1720 -64.0860 70° East 546 628 31,000  Level FlightAware
Fri 01:23:31 AM 43.2090 -63.9500 69° East 547 629 31,000  Level FlightAware
Fri 01:24:06 AM 43.2350 -63.8500 70° East 547 629 31,000  Level FlightAware
Fri 01:24:41 AM 43.2680 -63.7250 70° East 548 631 31,000  Level FlightAware
Fri 01:25:16 AM 43.2980 -63.6130 70° East 547 629 31,000  Level FlightAware
Fri 01:25:56 AM 43.3320 -63.4810 70° East 547 629 31,000  Level FlightAware
Fri 01:26:36 AM 43.3660 -63.3530 70° East 548 631 31,000  Level FlightAware
Fri 01:27:06 AM 43.3920 -63.2510 71° East 547 629 31,000  Level FlightAware
Fri 01:27:41 AM 43.4200 -63.1440 70° East 545 627 31,000  Level FlightAware
Fri 01:28:21 AM 43.4480 -63.0330 71° East 545 627 31,000  Level FlightAware
Fri 01:28:57 AM 43.4830 -62.8980 70° East 544 626 31,000  Level FlightAware
Fri 01:29:37 AM 43.5180 -62.7610 71° East 542 624 31,000  Level FlightAware
Fri 01:30:12 AM 43.5470 -62.6460 71° East 542 624 31,000  Level FlightAware
Fri 01:30:52 AM 43.5800 -62.5170 71° East 543 625 31,000  Level FlightAware
Fri 01:31:37 AM 43.6140 -62.3800 71° East 541 623 31,000  Level FlightAware
Fri 01:32:08 AM 43.6420 -62.2700 71° East 542 624 31,000  Level FlightAware
Fri 01:32:44 AM 43.6700 -62.1570 71° East 542 624 31,000 522 Level FlightAware
Fri 01:33:17 AM 43.6980 -62.0420 71° East 543 625 31,600 667 Climbing FlightAware
Fri 01:34:05 AM 43.7320 -61.9050 71° East 543 625 31,900 675 Climbing FlightAware
Fri 01:34:37 AM 43.7600 -61.7900 71° East 543 625 32,500 892 Climbing FlightAware
Fri 01:35:19 AM 43.7940 -61.6490 71° East 545 627 33,000 370 Climbing FlightAware
Fri 01:35:58 AM 43.8200 -61.5390 72° East 545 627 33,000  Level FlightAware
Fri 01:36:34 AM 43.8440 -61.4370 72° East 545 627 33,000  Level FlightAware
Fri 01:37:10 AM 43.8670 -61.3350 73° East 545 627 33,000  Level FlightAware
Fri 01:37:46 AM 43.8910 -61.2330 72° East 545 627 33,000  Level FlightAware
Fri 01:38:22 AM 43.9150 -61.1310 72° East 545 627 33,000  Level FlightAware
Fri 01:38:59 AM 43.9400 -61.0270 72° East 545 627 33,000  Level FlightAware
Fri 01:39:35 AM 43.9630 -60.9250 73° East 545 627 33,000  Level FlightAware
Fri 01:40:12 AM 43.9880 -60.8200 72° East 545 627 33,000  Level FlightAware
Fri 01:40:48 AM 44.0120 -60.7180 72° East 545 627 33,000  Level FlightAware
Fri 01:41:25 AM 44.0360 -60.6130 72° East 545 627 33,000  Level FlightAware
Fri 01:42:03 AM 44.0610 -60.5050 72° East 545 627 33,000  Level FlightAware
Fri 01:42:35 AM 44.1340 -60.1930 72° East 539 620 33,000  Level FlightAware
Fri 01:43:07 AM 44.1570 -60.0880 73° East 539 620 33,000  Level FlightAware
Fri 01:43:41 AM 44.1820 -59.9750 73° East 539 620 33,000  Level FlightAware
Fri 01:44:21 AM 44.2130 -59.8370 73° East 538 619 33,000  Level FlightAware
Fri 01:45:01 AM 44.2400 -59.7250 71° East 538 619 33,000  Level FlightAware
Fri 01:45:37 AM 44.2630 -59.6240 72° East 538 619 33,000  Level FlightAware
Fri 01:46:14 AM 44.2870 -59.5200 72° East 538 619 33,000  Level FlightAware
Fri 01:46:51 AM 44.3110 -59.4160 72° East 538 619 33,000  Level FlightAware
Fri 01:47:29 AM 44.3490 -59.2190 75° East 539 620 33,000  Level FlightAware
Fri 01:48:03 AM 44.3740 -59.1030 73° East 539 620 33,000  Level FlightAware
Fri 01:48:43 AM 44.4000 -58.9850 73° East 539 620 33,000  Level FlightAware
Fri 01:49:13 AM 44.4240 -58.8690 74° East 539 620 33,000  Level FlightAware
Fri 01:49:51 AM 44.4510 -58.7440 73° East 537 618 33,000  Level FlightAware
Fri 01:50:23 AM 44.4740 -58.6340 74° East 536 617 33,000  Level FlightAware
Fri 01:50:59 AM 44.4990 -58.5150 74° East 535 616 33,000  Level FlightAware
Fri 01:51:35 AM 44.5240 -58.3940 74° East 535 616 33,000  Level FlightAware
Fri 01:52:11 AM 44.5480 -58.2760 74° East 534 615 33,000  Level FlightAware
Fri 01:52:47 AM 44.5730 -58.1570 74° East 534 615 33,000  Level FlightAware
Fri 01:53:19 AM 44.5940 -58.0510 74° East 534 615 33,000  Level FlightAware
Fri 01:54:04 AM 44.6220 -57.9130 74° East 534 615 33,000  Level FlightAware
Fri 01:54:35 AM 44.6450 -57.8000 74° East 531 611 33,000  Level FlightAware
Fri 01:55:21 AM 44.6730 -57.6580 74° East 531 611 33,000  Level FlightAware
Fri 01:55:57 AM 44.6940 -57.5570 74° East 531 611 33,000  Level FlightAware
Fri 01:56:35 AM 44.7250 -57.3980 75° East 527 606 33,000  Level FlightAware
Fri 01:57:29 AM 44.7560 -57.2390 75° East 526 605 33,000  Level FlightAware
Fri 01:58:05 AM 44.7770 -57.1380 74° East 526 605 33,000  Level FlightAware
Fri 01:58:43 AM 44.8060 -56.9810 75° East 523 602 33,000  Level FlightAware
Fri 01:59:16 AM 44.8270 -56.8720 75° East 522 601 33,000  Level FlightAware
Fri 02:00:05 AM 44.8560 -56.7230 75° East 523 602 33,000  Level FlightAware
Fri 02:00:41 AM 44.8770 -56.6220 74° East 523 602 33,000  Level FlightAware
Fri 02:01:17 AM 44.8970 -56.5220 74° East 523 602 33,000  Level FlightAware
Fri 02:01:54 AM 44.9180 -56.4190 74° East 523 602 33,000  Level FlightAware
Fri 02:02:30 AM 44.9380 -56.3180 74° East 523 602 33,000  Level FlightAware
Fri 02:03:06 AM 44.9590 -56.2180 73° East 523 602 33,000  Level FlightAware
Fri 02:03:43 AM 44.9800 -56.1140 74° East 523 602 33,000  Level FlightAware
Fri 02:04:19 AM 45.0000 -56.0140 74° East 523 602 33,000  Level FlightAware
Fri 02:04:55 AM 45.0200 -55.9130 74° East 523 602 33,000  Level FlightAware
Fri 02:05:31 AM 45.0410 -55.8120 74° East 523 602 33,000  Level FlightAware
Fri 02:06:07 AM 45.0610 -55.7110 74° East 523 602 33,000  Level FlightAware
Fri 02:06:43 AM 45.0820 -55.6110 73° East 523 602 33,000  Level FlightAware
Fri 02:07:19 AM 45.1020 -55.5100 74° East 523 602 33,000  Level FlightAware
Fri 02:07:55 AM 45.1220 -55.4090 74° East 523 602 33,000  Level FlightAware
Fri 02:08:31 AM 45.1430 -55.3080 74° East 523 602 33,000  Level FlightAware
Fri 02:09:07 AM 45.1630 -55.2070 74° East 523 602 33,000  Level FlightAware
Fri 02:09:36 AM 45.2250 -54.7980 78° East 538 619 33,000  Level FlightAware
Fri 02:10:15 AM 45.2470 -54.6850 75° East 538 619 33,000  Level FlightAware
Fri 02:10:50 AM 45.2710 -54.5450 76° East 540 621 33,000  Level FlightAware
Fri 02:11:24 AM 45.2910 -54.4330 76° East 541 623 33,000  Level FlightAware
Fri 02:12:00 AM 45.3140 -54.3020 76° East 543 625 33,000  Level FlightAware
Fri 02:12:45 AM 45.3390 -54.1590 76° East 544 626 33,000  Level FlightAware
Fri 02:13:19 AM 45.3570 -54.0590 76° East 544 626 33,000  Level FlightAware
Fri 02:13:55 AM 45.3750 -53.9530 76° East 544 626 33,000  Level FlightAware
Fri 02:14:31 AM 45.3940 -53.8460 76° East 544 626 33,000  Level FlightAware
Fri 02:15:07 AM 45.4120 -53.7400 76° East 544 626 33,000  Level FlightAware
Fri 02:15:43 AM 45.4310 -53.6330 76° East 544 626 33,000  Level FlightAware
Fri 02:16:19 AM 45.4500 -53.5270 76° East 544 626 33,000  Level FlightAware
Fri 02:16:56 AM 45.4690 -53.4170 76° East 544 626 33,000  Level FlightAware
Fri 02:17:30 AM 45.4860 -53.3170 76° East 544 626 33,000  Level FlightAware
Fri 02:18:06 AM 45.5050 -53.2100 76° East 544 626 33,000  Level FlightAware
Fri 02:18:42 AM 45.5240 -53.1030 76° East 544 626 33,000  Level FlightAware
Fri 02:19:18 AM 45.5420 -52.9970 76° East 544 626 33,000  Level FlightAware
Fri 02:19:55 AM 45.5610 -52.8870 76° East 544 626 33,000  Level FlightAware
Fri 02:20:31 AM 45.5800 -52.7800 76° East 544 626 33,000  Level FlightAware
Fri 02:21:10 AM 45.6000 -52.6650 76° East 544 626 33,000  Level FlightAware
Fri 02:21:46 AM 45.6190 -52.5580 76° East 544 626 33,000  Level FlightAware
Fri 02:22:27 AM 45.6833 -52.0500 76° East 550 633 33,000  Level Gander Center
Fri 02:23:11 AM 45.7000 -51.8833 82° East 550 633 33,000  Level Gander Center
Fri 02:24:11 AM 45.7333 -51.6667 77° East 550 633 33,000  Level Gander Center
Fri 02:25:11 AM 45.7667 -51.4333 78° East 550 633 33,000  Level Gander Center
Fri 02:26:11 AM 45.8000 -51.2333 76° East 550 633 33,000  Level Gander Center
Fri 02:27:11 AM 45.8333 -51.0167 77° East 550 633 33,000  Level Gander Center
Fri 02:28:27 AM 45.8667 -50.7667 79° East 550 633 33,000  Level Gander Center
Fri 02:29:27 AM 45.9000 -50.5167 79° East 550 633 33,000  Level Gander Center
Fri 02:30:27 AM 45.9333 -50.3167 76° East 550 633 33,000  Level Gander Center
Fri 02:31:27 AM 45.9500 -50.1000 84° East 550 633 33,000  Level Gander Center
Fri 02:32:11 AM 45.9667 -49.9500 81° East 550 633 33,000  Level Gander Center
Fri 02:33:00 AM 46.0000 -50.0000 78° East 568 654 33,000  Level ETMS Enhanced
Fri 02:34:27 AM 46.0500 -49.4500 78° East 550 633 33,000  Level Gander Center
Fri 02:35:27 AM 46.0667 -49.2500 83° East 560 644 33,000  Level Gander Center
Fri 02:36:27 AM 46.1167 -49.0167 73° East 560 644 33,000  Level Gander Center
Fri 02:37:27 AM 46.1333 -48.8167 83° East 570 656 33,000  Level Gander Center
Fri 02:38:27 AM 46.1833 -48.5667 74° East 560 644 33,000  Level Gander Center
Fri 02:41:00 AM 46.2343 -48.1828 79° East  Level FlightAware
Fri 02:48:00 AM 46.4186 -46.6974 79° East  Level FlightAware
Fri 02:49:00 AM 46.4433 -46.4844 80° East  Level FlightAware
Fri 02:50:00 AM 46.4677 -46.2712 81° East  Level FlightAware
Fri 02:51:00 AM 46.4916 -46.0578 81° East  Level FlightAware
Fri 02:52:00 AM 46.5152 -45.8443 81° East  Level FlightAware
Fri 02:53:00 AM 46.5383 -45.6305 81° East  Level FlightAware
Fri 02:54:00 AM 46.5611 -45.4166 81° East  Level FlightAware
Fri 02:55:00 AM 46.5835 -45.2025 81° East  Level FlightAware
Fri 02:56:00 AM 46.6054 -44.9882 81° East  Level FlightAware
Fri 02:57:00 AM 46.6270 -44.7737 82° East  Level FlightAware
Fri 02:58:00 AM 46.6482 -44.5591 82° East  Level FlightAware
Fri 02:59:00 AM 46.6689 -44.3443 82° East  Level FlightAware
Fri 03:00:00 AM 46.6893 -44.1293 82° East  Level FlightAware
Fri 03:01:00 AM 46.7092 -43.9142 82° East  Level FlightAware
Fri 03:02:00 AM 46.7288 -43.6989 82° East  Level FlightAware
Fri 03:03:00 AM 46.7479 -43.4835 83° East  Level FlightAware
Fri 03:04:00 AM 46.7667 -43.2679 83° East  Level FlightAware
Fri 03:05:00 AM 46.7850 -43.0522 83° East  Level FlightAware
Fri 03:06:00 AM 46.8030 -42.8363 83° East  Level FlightAware
Fri 03:07:00 AM 46.8205 -42.6203 83° East  Level FlightAware
Fri 03:08:00 AM 46.8376 -42.4041 83° East  Level FlightAware
Fri 03:09:00 AM 46.8543 -42.1878 83° East  Level FlightAware
Fri 03:10:00 AM 46.8706 -41.9714 84° East  Level FlightAware
Fri 03:11:00 AM 46.8865 -41.7548 84° East  Level FlightAware
Fri 03:12:00 AM 46.9020 -41.5381 84° East  Level FlightAware
Fri 03:13:00 AM 46.9171 -41.3213 84° East  Level FlightAware
Fri 03:14:00 AM 46.9318 -41.1044 84° East  Level FlightAware
Fri 03:15:00 AM 46.9460 -40.8873 84° East  Level FlightAware
Fri 03:16:00 AM 46.9599 -40.6702 85° East  Level FlightAware
Fri 03:17:00 AM 46.9733 -40.4529 85° East  Level FlightAware
Fri 03:18:00 AM 46.9864 -40.2355 85° East  Level FlightAware
Fri 03:18:00 AM 47.0000 -40.0000 95° East 568 654 33,000  Level ETMS Enhanced
Fri 03:19:00 AM 46.9990 -40.0181 85° East  Level FlightAware
Fri 03:20:00 AM 46.9876 -39.8007 95° East  Level FlightAware
Fri 03:21:00 AM 46.9738 -39.5835 95° East  Level FlightAware
Fri 03:22:00 AM 46.9595 -39.3663 95° East  Level FlightAware
Fri 03:23:00 AM 46.9448 -39.1493 96° East  Level FlightAware
Fri 03:24:00 AM 46.8997 -38.3867 96° East 568 654 33,000  Level FlightAware
Fri 03:25:00 AM 46.8835 -38.1568 96° East 568 654 33,000  Level FlightAware
Fri 03:26:00 AM 46.8669 -37.9270 96° East 568 654 33,000  Level FlightAware
Fri 03:27:00 AM 46.8498 -37.6973 96° East 568 654 33,000  Level FlightAware
Fri 03:28:00 AM 46.8322 -37.4678 96° East 568 654 33,000  Level FlightAware
Fri 03:29:00 AM 46.8142 -37.2384 97° East 568 654 33,000  Level FlightAware
Fri 03:30:00 AM 46.7958 -37.0092 97° East 568 654 33,000  Level FlightAware
Fri 03:31:00 AM 46.7769 -36.7802 97° East 568 654 33,000  Level FlightAware
Fri 03:32:00 AM 46.7575 -36.5513 97° East 568 654 33,000  Level FlightAware
Fri 03:33:00 AM 46.7376 -36.3225 97° East 568 654 33,000  Level FlightAware
Fri 03:34:00 AM 46.7173 -36.0940 97° East 568 654 33,000  Level FlightAware
Fri 03:35:00 AM 46.6966 -35.8656 98° East 568 654 33,000  Level FlightAware
Fri 03:36:00 AM 46.6754 -35.6374 98° East 568 654 33,000  Level FlightAware
Fri 03:37:00 AM 46.6537 -35.4094 98° East 568 654 33,000  Level FlightAware
Fri 03:38:00 AM 46.6316 -35.1815 98° East 568 654 33,000  Level FlightAware
Fri 03:39:00 AM 46.6091 -34.9539 98° East 568 654 33,000  Level FlightAware
Fri 03:40:00 AM 46.5860 -34.7265 98° East 568 654 33,000  Level FlightAware
Fri 03:41:00 AM 46.5626 -34.4992 99° East 568 654 33,000  Level FlightAware
Fri 03:42:00 AM 46.5387 -34.2721 99° East 568 654 33,000  Level FlightAware
Fri 03:43:00 AM 46.5143 -34.0453 99° East 568 654 33,000  Level FlightAware
Fri 03:44:00 AM 46.4895 -33.8186 99° East 568 654 33,000  Level FlightAware
Fri 03:45:00 AM 46.4642 -33.5922 99° East 568 654 33,000  Level FlightAware
Fri 03:46:00 AM 46.4385 -33.3659 99° East 568 654 33,000  Level FlightAware
Fri 03:47:00 AM 46.4124 -33.1399 100° East 568 654 33,000  Level FlightAware
Fri 03:48:00 AM 46.3858 -32.9141 100° East 568 654 33,000  Level FlightAware
Fri 03:49:00 AM 46.3588 -32.6885 100° East 568 654 33,000  Level FlightAware
Fri 03:50:00 AM 46.3313 -32.4632 100° East 568 654 33,000  Level FlightAware
Fri 03:51:00 AM 46.3033 -32.2380 100° East 568 654 33,000  Level FlightAware
Fri 03:52:00 AM 46.2750 -32.0131 100° East 568 654 33,000  Level FlightAware
Fri 03:53:00 AM 46.2462 -31.7885 101° East 568 654 33,000  Level FlightAware
Fri 03:54:00 AM 46.2169 -31.5641 101° East 568 654 33,000  Level FlightAware
Fri 03:55:00 AM 46.1873 -31.3399 101° East 568 654 33,000  Level FlightAware
Fri 03:56:00 AM 46.1571 -31.1159 101° East 568 654 33,000  Level FlightAware
Fri 03:57:00 AM 46.1266 -30.8922 101° East 568 654 33,000  Level FlightAware
Fri 03:58:00 AM 46.0956 -30.6688 101° East 568 654 33,000  Level FlightAware
Fri 03:59:00 AM 46.0642 -30.4456 102° East 568 654 33,000  Level FlightAware
Fri 04:00:00 AM 46.0323 -30.2227 102° East 568 654 33,000  Level FlightAware
Fri 04:01:00 AM 46.0019 -30.0128 102° East  Level FlightAware
Fri 04:02:00 AM 45.9711 -29.8032 102° East  Level FlightAware
Fri 04:03:00 AM 45.9892 -29.8125 95° East  Level FlightAware
Fri 04:04:00 AM 45.9766 -29.5990 95° East  Level FlightAware
Fri 04:04:00 AM 46.0000 -30.0000 95° East 541 623 33,000  Level ETMS Enhanced
Fri 04:05:00 AM 45.9635 -29.3857 95° East  Level FlightAware
Fri 04:06:00 AM 45.9501 -29.1724 95° East  Level FlightAware
Fri 04:07:00 AM 45.9362 -28.9592 95° East  Level FlightAware
Fri 04:08:00 AM 45.9220 -28.7461 95° East  Level FlightAware
Fri 04:09:00 AM 45.9074 -28.5332 96° East  Level FlightAware
Fri 04:10:00 AM 45.8766 -28.0599 96° East 541 623 33,000  Level FlightAware
Fri 04:11:00 AM 45.8609 -27.8449 96° East 541 623 33,000  Level FlightAware
Fri 04:12:00 AM 45.8447 -27.6300 96° East 541 623 33,000  Level FlightAware
Fri 04:13:00 AM 45.8282 -27.4152 96° East 541 623 33,000  Level FlightAware
Fri 04:14:00 AM 45.8112 -27.2006 97° East 541 623 33,000  Level FlightAware
Fri 04:15:00 AM 45.7939 -26.9861 97° East 541 623 33,000  Level FlightAware
Fri 04:16:00 AM 45.7761 -26.7717 97° East 541 623 33,000  Level FlightAware
Fri 04:17:00 AM 45.7580 -26.5575 97° East 541 623 33,000  Level FlightAware
Fri 04:18:00 AM 45.7395 -26.3434 97° East 541 623 33,000  Level FlightAware
Fri 04:19:00 AM 45.7205 -26.1295 97° East 541 623 33,000  Level FlightAware
Fri 04:20:00 AM 45.7012 -25.9157 97° East 541 623 33,000  Level FlightAware
Fri 04:21:00 AM 45.6814 -25.7020 98° East 541 623 33,000  Level FlightAware
Fri 04:22:00 AM 45.6613 -25.4885 98° East 541 623 33,000  Level FlightAware
Fri 04:23:00 AM 45.6407 -25.2752 98° East 541 623 33,000  Level FlightAware
Fri 04:24:00 AM 45.6198 -25.0620 98° East 541 623 33,000  Level FlightAware
Fri 04:25:00 AM 45.5985 -24.8490 98° East 541 623 33,000  Level FlightAware
Fri 04:26:00 AM 45.5768 -24.6361 98° East 541 623 33,000  Level FlightAware
Fri 04:27:00 AM 45.5546 -24.4235 99° East 541 623 33,000  Level FlightAware
Fri 04:28:00 AM 45.5321 -24.2109 99° East 541 623 33,000  Level FlightAware
Fri 04:29:00 AM 45.5092 -23.9986 99° East 541 623 33,000  Level FlightAware
Fri 04:30:00 AM 45.4859 -23.7864 99° East 541 623 33,000  Level FlightAware
Fri 04:31:00 AM 45.4622 -23.5744 99° East 541 623 33,000  Level FlightAware
Fri 04:32:00 AM 45.4381 -23.3626 99° East 541 623 33,000  Level FlightAware
Fri 04:33:00 AM 45.4136 -23.1509 99° East 541 623 33,000  Level FlightAware
Fri 04:34:00 AM 45.3888 -22.9395 100° East 541 623 33,000  Level FlightAware
Fri 04:35:00 AM 45.3635 -22.7282 100° East 541 623 33,000  Level FlightAware
Fri 04:36:00 AM 45.3379 -22.5172 100° East 541 623 33,000  Level FlightAware
Fri 04:37:00 AM 45.3118 -22.3063 100° East 541 623 33,000  Level FlightAware
Fri 04:38:00 AM 45.2854 -22.0956 100° East 541 623 33,000  Level FlightAware
Fri 04:39:00 AM 45.2586 -21.8851 100° East 541 623 33,000  Level FlightAware
Fri 04:40:00 AM 45.2314 -21.6748 100° East 541 623 33,000  Level FlightAware
Fri 04:41:00 AM 45.2038 -21.4647 101° East 541 623 33,000  Level FlightAware
Fri 04:42:00 AM 45.1758 -21.2549 101° East 541 623 33,000  Level FlightAware
Fri 04:43:00 AM 45.1475 -21.0452 101° East 541 623 33,000  Level FlightAware
Fri 04:44:00 AM 45.1188 -20.8357 101° East 541 623 33,000  Level FlightAware
Fri 04:45:00 AM 45.0896 -20.6265 101° East 541 623 33,000  Level FlightAware
Fri 04:46:00 AM 45.0601 -20.4174 101° East 541 623 33,000  Level FlightAware
Fri 04:47:00 AM 45.0303 -20.2086 102° East 541 623 33,000 21 Level FlightAware
Fri 04:48:00 AM 45.0003 -20.0023 102° East  Level FlightAware
Fri 04:49:00 AM 44.9696 -19.7963 102° East  Level FlightAware
Fri 04:50:00 AM 44.9641 -19.8005 104° East  Level FlightAware
Fri 04:51:00 AM 44.9271 -19.5968 104° East  Level FlightAware
Fri 04:52:00 AM 44.8897 -19.3933 104° East  Level FlightAware
Fri 04:53:00 AM 44.8520 -19.1901 105° East  Level FlightAware
Fri 04:54:00 AM 44.8138 -18.9872 105° East  Level FlightAware
Fri 04:55:00 AM 44.7753 -18.7845 105° East  Level FlightAware
Fri 04:56:00 AM 44.7365 -18.5821 105° East  Level FlightAware
Fri 04:57:00 AM 44.6973 -18.3800 105° East  Level FlightAware
Fri 04:58:00 AM 44.6578 -18.1781 105° East  Level FlightAware
Fri 04:59:00 AM 44.6179 -17.9766 105° East  Level FlightAware
Fri 05:00:00 AM 44.5776 -17.7753 106° East  Level FlightAware
Fri 05:01:00 AM 44.5370 -17.5742 106° East  Level FlightAware
Fri 05:02:00 AM 44.4961 -17.3735 106° East  Level FlightAware
Fri 05:03:00 AM 44.4547 -17.1730 106° East  Level FlightAware
Fri 05:04:00 AM 44.4131 -16.9729 106° East  Level FlightAware
Fri 05:05:00 AM 44.3711 -16.7730 106° East  Level FlightAware
Fri 05:06:00 AM 44.3287 -16.5734 106° East  Level FlightAware
Fri 05:07:00 AM 44.2860 -16.3741 107° East  Level FlightAware
Fri 05:08:00 AM 44.2430 -16.1751 107° East  Level FlightAware
Fri 05:09:00 AM 44.1996 -15.9764 107° East  Level FlightAware
Fri 05:10:00 AM 44.1558 -15.7780 107° East  Level FlightAware
Fri 05:11:00 AM 44.1117 -15.5798 107° East  Level FlightAware
Fri 05:12:00 AM 44.0673 -15.3820 107° East  Level FlightAware
Fri 05:13:00 AM 44.0225 -15.1844 107° East  Level FlightAware
Fri 05:14:00 AM 43.9774 -14.9872 108° East  Level FlightAware
Fri 05:15:00 AM 43.9320 -14.7903 108° East  Level FlightAware
Fri 05:16:00 AM 43.8862 -14.5936 108° East  Level FlightAware
Fri 05:17:00 AM 43.8401 -14.3973 108° East  Level FlightAware
Fri 05:18:00 AM 43.7936 -14.2013 108° East  Level FlightAware
Fri 05:19:00 AM 43.7468 -14.0055 108° East  Level FlightAware
Fri 05:20:00 AM 43.6997 -13.8101 108° East  Level FlightAware
Fri 05:21:00 AM 43.6523 -13.6150 109° East  Level FlightAware
Fri 05:22:00 AM 43.6045 -13.4202 109° East  Level FlightAware
Fri 05:23:00 AM 43.5564 -13.2257 109° East  Level FlightAware
Fri 05:24:00 AM 43.5091 -13.0364 109° East  Level FlightAware
Fri 05:25:00 AM 43.4825 -12.8402 99° East  Level FlightAware
Fri 05:26:00 AM 43.4605 -12.6424 99° East  Level FlightAware
Fri 05:27:00 AM 43.4381 -12.4448 99° East  Level FlightAware
Fri 05:28:00 AM 43.4154 -12.2474 99° East  Level FlightAware
Fri 05:29:00 AM 43.3924 -12.0501 99° East  Level FlightAware
Fri 05:30:00 AM 43.3690 -11.8530 99° East  Level FlightAware
Fri 05:31:00 AM 43.3459 -11.6558 99° East  Level FlightAware
Fri 05:32:00 AM 43.3226 -11.4588 99° East  Level FlightAware
Fri 05:32:53 AM 43.2410 -10.6680 99° East 550 633 34,000  Level FlightAware
Fri 05:33:00 AM 43.2989 -11.2620 99° East  Level FlightAware
Fri 05:33:43 AM 43.2210 -10.4720 98° East 548 631 34,000  Level FlightAware
Fri 05:34:18 AM 43.2090 -10.3590 98° East 547 629 34,000  Level FlightAware
Fri 05:34:53 AM 43.1950 -10.2310 98° East 546 628 34,000  Level FlightAware
Fri 05:35:28 AM 43.1810 -10.1120 99° East 546 628 34,000  Level FlightAware
Fri 05:36:05 AM 43.1660 -9.9930 100° East 546 628 34,000  Level FlightAware
Fri 05:36:38 AM 43.1510 -9.8750 100° East 545 627 34,000  Level FlightAware
Fri 05:37:13 AM 43.1350 -9.7580 101° East 544 626 34,000  Level FlightAware
Fri 05:37:48 AM 43.1180 -9.6370 101° East 542 624 34,000  Level FlightAware
Fri 05:38:23 AM 43.1010 -9.5190 101° East 541 623 34,000  Level FlightAware
Fri 05:38:53 AM 43.0870 -9.4200 101° East 538 619 34,000  Level FlightAware
Fri 05:39:33 AM 43.0680 -9.2880 101° East 537 618 34,000  Level FlightAware
Fri 05:39:58 AM 43.0550 -9.2020 102° East 536 617 34,000  Level FlightAware
Fri 05:40:43 AM 43.0340 -9.0530 101° East 537 618 34,000  Level FlightAware
Fri 05:41:18 AM 43.0160 -8.9370 102° East 537 618 34,000  Level FlightAware
Fri 05:42:03 AM 42.9940 -8.7880 101° East 537 618 34,000  Level FlightAware
Fri 05:42:39 AM 42.9760 -8.6700 102° East 539 620 34,000  Level FlightAware
Fri 05:43:14 AM 42.9580 -8.5510 102° East 541 623 34,000  Level FlightAware
Fri 05:43:49 AM 42.9420 -8.4320 100° East 547 629 34,000  Level FlightAware
Fri 05:44:24 AM 42.9310 -8.3120 97° East 554 638 34,000  Level FlightAware
Fri 05:45:04 AM 42.9230 -8.1870 95° East 560 644 34,000  Level FlightAware
Fri 05:45:40 AM 42.9160 -8.0480 94° East 561 646 34,000  Level FlightAware
Fri 05:46:14 AM 42.9080 -7.9250 95° East 562 647 34,000  Level FlightAware
Fri 05:46:49 AM 42.9010 -7.8040 94° East 559 643 34,000  Level FlightAware
Fri 05:47:24 AM 42.8920 -7.6820 96° East 558 642 34,000  Level FlightAware
Fri 05:47:59 AM 42.8830 -7.5580 96° East 557 641 34,000  Level FlightAware
Fri 05:48:34 AM 42.8740 -7.4340 96° East 551 634 34,000  Level FlightAware
Fri 05:49:11 AM 42.8660 -7.3140 95° East 547 629 34,000  Level FlightAware
Fri 05:49:44 AM 42.8570 -7.1970 96° East 545 627 34,000  Level FlightAware
Fri 05:50:19 AM 42.8480 -7.0770 96° East 545 627 34,000  Level FlightAware
Fri 05:50:54 AM 42.8390 -6.9570 96° East 541 623 34,000  Level FlightAware
Fri 05:51:29 AM 42.8290 -6.8390 97° East 538 619 34,000  Level FlightAware
Fri 05:52:04 AM 42.8210 -6.7240 95° East 538 619 34,000  Level FlightAware
Fri 05:52:39 AM 42.8120 -6.6130 96° East 537 618 34,000  Level FlightAware
Fri 05:53:16 AM 42.8010 -6.4800 96° East 535 616 34,000  Level FlightAware
Fri 05:53:51 AM 42.7920 -6.3640 96° East 534 615 34,000  Level FlightAware
Fri 05:54:26 AM 42.7820 -6.2460 97° East 533 613 34,000  Level FlightAware
Fri 05:55:01 AM 42.7730 -6.1340 96° East 532 612 34,000  Level FlightAware
Fri 05:55:41 AM 42.7620 -5.9990 96° East 533 613 34,000  Level FlightAware
Fri 05:56:21 AM 42.7500 -5.8630 97° East 534 615 34,000  Level FlightAware
Fri 05:56:51 AM 42.7420 -5.7650 96° East 534 615 34,000  Level FlightAware
Fri 05:57:26 AM 42.7320 -5.6470 97° East 534 615 34,000  Level FlightAware
Fri 05:58:01 AM 42.7220 -5.5340 97° East 533 613 34,000  Level FlightAware
Fri 05:58:36 AM 42.7120 -5.4150 96° East 534 615 34,000  Level FlightAware
Fri 05:59:11 AM 42.7010 -5.2960 97° East 535 616 34,000  Level FlightAware
Fri 05:59:47 AM 42.6910 -5.1790 97° East 534 615 34,000  Level FlightAware
Fri 06:00:22 AM 42.6800 -5.0640 97° East 534 615 34,000  Level FlightAware
Fri 06:00:57 AM 42.6690 -4.9440 97° East 534 615 34,000  Level FlightAware
Fri 06:01:32 AM 42.6590 -4.8320 97° East 532 612 34,000  Level FlightAware
Fri 06:02:07 AM 42.6470 -4.7120 98° East 531 611 34,000  Level FlightAware
Fri 06:02:42 AM 42.6370 -4.6000 97° East 532 612 34,000  Level FlightAware
Fri 06:03:18 AM 42.6260 -4.4840 97° East 532 612 34,000  Level FlightAware
Fri 06:03:52 AM 42.6140 -4.3680 98° East 532 612 34,000  Level FlightAware
Fri 06:04:27 AM 42.6020 -4.2510 98° East 534 615 34,000  Level FlightAware
Fri 06:05:02 AM 42.5900 -4.1330 98° East 534 615 34,000  Level FlightAware
Fri 06:05:37 AM 42.5790 -4.0160 97° East 533 613 34,000  Level FlightAware
Fri 06:06:12 AM 42.5670 -3.9020 98° East 533 613 34,000  Level FlightAware
Fri 06:06:37 AM 42.5590 -3.8210 98° East 533 613 34,000  Level FlightAware
Fri 06:07:17 AM 42.5450 -3.6880 98° East 532 612 34,000  Level FlightAware
Fri 06:07:52 AM 42.5330 -3.5710 98° East 532 612 34,000  Level FlightAware
Fri 06:08:27 AM 42.5220 -3.4690 98° East 532 612 34,000  Level FlightAware
Fri 06:09:07 AM 42.5070 -3.3270 98° East 533 613 34,000  Level FlightAware
Fri 06:09:42 AM 42.4940 -3.2100 99° East 534 615 34,000  Level FlightAware
Fri 06:10:22 AM 42.4800 -3.0840 99° East 533 613 34,000  Level FlightAware
Fri 06:10:57 AM 42.4670 -2.9600 98° East 529 609 34,000  Level FlightAware
Fri 06:11:37 AM 42.4470 -2.8340 102° East 524 603 34,000  Level FlightAware
Fri 06:12:07 AM 42.4300 -2.7460 105° East 524 603 34,000  Level FlightAware
Fri 06:12:37 AM 42.4090 -2.6420 105° East 522 601 34,000  Level FlightAware
Fri 06:13:12 AM 42.3890 -2.5460 106° East 524 603 34,000  Level FlightAware
Fri 06:13:52 AM 42.3620 -2.4150 106° East 522 601 34,000  Level FlightAware
Fri 06:14:29 AM 42.3420 -2.3160 105° East 522 601 34,000  Level FlightAware
Fri 06:15:05 AM 42.3230 -2.2190 105° East 522 601 34,000  Level FlightAware
Fri 06:15:41 AM 42.3040 -2.1220 105° East 522 601 34,000  Level FlightAware
Fri 06:16:17 AM 42.2840 -2.0260 106° East 522 601 34,000  Level FlightAware
Fri 06:16:53 AM 42.2650 -1.9300 105° East 522 601 34,000  Level FlightAware
Fri 06:17:29 AM 42.2460 -1.8330 105° East 522 601 34,000  Level FlightAware
Fri 06:18:05 AM 42.2270 -1.7370 105° East 522 601 34,000  Level FlightAware
Fri 06:18:41 AM 42.2080 -1.6400 105° East 522 601 34,000  Level FlightAware
Fri 06:19:17 AM 42.1890 -1.5440 105° East 522 601 34,000  Level FlightAware
Fri 06:19:51 AM 42.1220 -1.2910 110° East 513 590 34,000  Level FlightAware
Fri 06:20:29 AM 42.0970 -1.1740 106° East 513 590 34,000  Level FlightAware
Fri 06:21:03 AM 42.0740 -1.0690 106° East 514 592 34,000  Level FlightAware
Fri 06:21:58 AM 42.0400 -0.9130 106° East 514 592 34,000  Level FlightAware
Fri 06:22:33 AM 42.0140 -0.7970 107° East 515 593 34,000  Level FlightAware
Fri 06:23:15 AM 41.9890 -0.6830 106° East 515 593 34,000  Level FlightAware
Fri 06:24:04 AM 41.9530 -0.5230 107° East 584 672 34,000  Level FlightAware
Fri 06:24:51 AM 41.9250 -0.3950 106° East 510 587 34,000  Level FlightAware
Fri 06:25:19 AM 41.9010 -0.2910 107° East 510 587 34,000  Level FlightAware
Fri 06:25:59 AM 41.8740 -0.1670 106° East 510 587 34,000  Level FlightAware
Fri 06:26:54 AM 41.8350 0.0010 107° East 512 589 34,000  Level FlightAware
Fri 06:27:24 AM 41.8170 0.0830 106° East 513 590 34,000  Level FlightAware
Fri 06:28:11 AM 41.7860 0.2220 107° East 512 589 34,000  Level FlightAware
Fri 06:28:44 AM 41.7590 0.3340 108° East 509 586 34,000  Level FlightAware
Fri 06:29:29 AM 41.7300 0.4590 107° East 508 585 34,000  Level FlightAware
Fri 06:29:59 AM 41.7060 0.5590 108° East 507 583 34,000  Level FlightAware
Fri 06:30:34 AM 41.6830 0.6550 108° East 508 585 34,000  Level FlightAware
Fri 06:31:14 AM 41.6510 0.7830 108° East 509 586 34,000  Level FlightAware
Fri 06:31:44 AM 41.6280 0.8700 109° East 509 586 34,000  Level FlightAware
Fri 06:32:24 AM 41.5960 0.9910 109° East 511 588 34,000  Level FlightAware
Fri 06:32:59 AM 41.5690 1.0960 109° East 514 592 34,000  Level FlightAware
Fri 06:33:29 AM 41.5470 1.1820 109° East 514 592 34,000  Level FlightAware
Fri 06:34:09 AM 41.5190 1.3070 107° East 515 593 34,000  Level FlightAware
Fri 06:34:44 AM 41.4950 1.4140 107° East 514 592 34,000  Level FlightAware
Fri 06:35:14 AM 41.4740 1.5050 107° East 515 593 34,000  Level FlightAware
Fri 06:35:53 AM 41.4460 1.6230 108° East 514 592 34,000  Level FlightAware
Fri 06:36:27 AM 41.4210 1.7240 108° East 514 592 34,000  Level FlightAware
Fri 06:37:03 AM 41.3930 1.8320 109° East 512 589 34,000  Level FlightAware
Fri 06:37:39 AM 41.3650 1.9400 109° East 513 590 34,000  Level FlightAware
Fri 06:38:13 AM 41.3390 2.0420 109° East 512 589 34,000  Level FlightAware
Fri 06:38:49 AM 41.3140 2.1530 107° East 515 593 34,000  Level FlightAware
Fri 06:39:21 AM 41.2980 2.2490 102° East 518 596 34,000  Level FlightAware
Fri 06:39:54 AM 41.2820 2.3510 102° East 518 596 34,000  Level FlightAware
Fri 06:40:35 AM 41.2620 2.4790 102° East 519 597 34,000  Level FlightAware
Fri 06:41:07 AM 41.2450 2.5820 102° East 519 597 34,000  Level FlightAware
Fri 06:41:43 AM 41.2270 2.6890 103° East 518 596 34,000  Level FlightAware
Fri 06:42:18 AM 41.2080 2.8000 103° East 518 596 34,000  Level FlightAware
Fri 06:42:52 AM 41.1900 2.9050 103° East 518 596 34,000  Level FlightAware
Fri 06:43:26 AM 41.1720 3.0130 102° East 519 597 34,000  Level FlightAware
Fri 06:44:02 AM 41.1520 3.1240 103° East 517 595 34,000  Level FlightAware
Fri 06:44:38 AM 41.1340 3.2330 102° East 517 595 34,000  Level FlightAware
Fri 06:45:14 AM 41.1150 3.3420 103° East 516 594 34,000  Level FlightAware
Fri 06:45:46 AM 41.0970 3.4440 103° East 516 594 34,000  Level FlightAware
Fri 06:46:21 AM 41.0770 3.5500 104° East 514 592 34,000  Level FlightAware
Fri 06:46:57 AM 41.0580 3.6580 103° East 512 589 34,000  Level FlightAware
Fri 06:47:33 AM 41.0380 3.7700 103° East 509 586 34,000  Level FlightAware
Fri 06:48:22 AM 41.0120 3.9160 103° East 505 581 34,000  Level FlightAware
Fri 06:48:58 AM 40.9920 4.0270 103° East 503 579 34,000  Level FlightAware
Fri 06:49:32 AM 40.9740 4.1280 103° East 504 580 34,000  Level FlightAware
Fri 06:50:06 AM 40.9550 4.2270 104° East 504 580 34,000  Level FlightAware
Fri 06:50:42 AM 40.9350 4.3400 103° East 506 582 34,000  Level FlightAware
Fri 06:51:18 AM 40.9160 4.4420 104° East 508 585 34,000  Level FlightAware
Fri 06:51:50 AM 40.8980 4.5370 104° East 508 585 34,000  Level FlightAware
Fri 06:52:20 AM 40.8810 4.6290 104° East 511 588 34,000  Level FlightAware
Fri 06:53:02 AM 40.8660 4.7470 100° East 509 586 34,000  Level FlightAware
Fri 06:53:42 AM 40.8510 4.8510 101° East 509 586 34,000  Level FlightAware
Fri 06:54:18 AM 40.8370 4.9440 101° East 509 586 34,000  Level FlightAware
Fri 06:54:55 AM 40.8230 5.0400 101° East 509 586 34,000  Level FlightAware
Fri 06:55:29 AM 40.8100 5.1290 101° East 509 586 34,000  Level FlightAware
Fri 06:56:06 AM 40.8360 5.3150 79° East 618 711 34,000  Level FlightAware
Fri 06:56:46 AM 40.8280 5.4550 94° East 504 580 34,000  Level FlightAware
Fri 06:57:19 AM 40.8240 5.5400 94° East 504 580 34,000  Level FlightAware
Fri 06:57:52 AM 40.8180 5.6390 95° East 503 579 34,000  Level FlightAware
Fri 06:58:28 AM 40.8120 5.7430 94° East 501 577 34,000  Level FlightAware
Fri 06:59:05 AM 40.8070 5.8200 95° East 501 577 34,000  Level FlightAware
Fri 06:59:37 AM 40.7980 5.9760 94° East 499 574 34,000  Level FlightAware
Fri 07:00:15 AM 40.7920 6.0810 94° East 497 572 34,000  Level FlightAware
Fri 07:00:52 AM 40.7850 6.1930 95° East 496 571 34,000  Level FlightAware
Fri 07:01:27 AM 40.7780 6.3070 95° East 496 571 34,000  Level FlightAware
Fri 07:01:57 AM 40.7720 6.3980 95° East 496 571 34,000  Level FlightAware
Fri 07:02:33 AM 40.7650 6.5060 95° East 495 570 34,000  Level FlightAware
Fri 07:03:12 AM 40.7570 6.6240 95° East 493 567 34,000  Level FlightAware
Fri 07:03:52 AM 40.7500 6.7410 94° East 493 567 34,000  Level FlightAware
Fri 07:04:27 AM 40.7430 6.8470 95° East 494 568 34,000  Level FlightAware
Fri 07:05:07 AM 40.7350 6.9680 95° East 494 568 34,000  Level FlightAware
Fri 07:05:42 AM 40.7270 7.0750 96° East 495 570 34,000  Level FlightAware
Fri 07:06:17 AM 40.7200 7.1770 95° East 495 570 34,000  Level FlightAware
Fri 07:06:52 AM 40.7120 7.2840 96° East 494 568 34,000  Level FlightAware
Fri 07:07:27 AM 40.7050 7.3880 95° East 492 566 34,000  Level FlightAware
Fri 07:08:02 AM 40.6980 7.4940 95° East 491 565 34,000  Level FlightAware
Fri 07:08:37 AM 40.6900 7.5970 96° East 491 565 34,000  Level FlightAware
Fri 07:09:12 AM 40.6830 7.7020 95° East 491 565 34,000  Level FlightAware
Fri 07:09:48 AM 40.6730 7.8070 97° East 491 565 34,000  Level FlightAware
Fri 07:10:23 AM 40.6600 7.9110 99° East 491 565 34,000  Level FlightAware
Fri 07:11:08 AM 40.6440 8.0430 99° East 492 566 34,000  Level FlightAware
Fri 07:11:38 AM 40.6310 8.1330 101° East 490 564 34,000  Level FlightAware
Fri 07:12:17 AM 40.6150 8.2430 101° East 490 564 34,000  Level FlightAware
Fri 07:12:51 AM 40.6010 8.3410 101° East 488 562 34,000 176 Level FlightAware
Fri 07:13:25 AM 40.5870 8.4460 100° East 489 563 34,200 870 Climbing FlightAware
Fri 07:14:00 AM 40.5720 8.5490 101° East 491 565 35,000 676 Climbing FlightAware
Fri 07:14:36 AM 40.5570 8.6540 101° East 492 566 35,000  Level FlightAware
Fri 07:15:10 AM 40.5420 8.7560 101° East 491 565 35,000  Level FlightAware
Fri 07:15:45 AM 40.5270 8.8590 101° East 489 563 35,000  Level FlightAware
Fri 07:16:20 AM 40.5130 8.9600 100° East 489 563 35,000  Level FlightAware
Fri 07:16:55 AM 40.4970 9.0640 101° East 489 563 35,000  Level FlightAware
Fri 07:17:30 AM 40.4820 9.1650 101° East 490 564 35,000  Level FlightAware
Fri 07:18:05 AM 40.4670 9.2680 101° East 490 564 35,000  Level FlightAware
Fri 07:18:40 AM 40.4520 9.3700 101° East 493 567 35,000  Level FlightAware
Fri 07:19:15 AM 40.4360 9.4740 101° East 494 568 35,000  Level FlightAware
Fri 07:19:50 AM 40.4210 9.5760 101° East 495 570 35,000  Level FlightAware
Fri 07:20:27 AM 40.4050 9.6800 101° East 494 568 35,000  Level FlightAware
Fri 07:21:00 AM 40.3900 9.7800 101° East 492 566 35,000  Level FlightAware
Fri 07:21:35 AM 40.3730 9.8850 102° East 492 566 35,000  Level FlightAware
Fri 07:22:10 AM 40.3580 9.9870 101° East 492 566 35,000  Level FlightAware
Fri 07:22:45 AM 40.3420 10.0890 102° East 493 567 35,000  Level FlightAware
Fri 07:23:20 AM 40.3260 10.1910 102° East 494 568 35,000  Level FlightAware
Fri 07:24:00 AM 40.3070 10.3100 102° East 495 570 35,000  Level FlightAware
Fri 07:24:40 AM 40.2890 10.4250 102° East 495 570 35,000  Level FlightAware
Fri 07:25:15 AM 40.2720 10.5300 102° East 495 570 35,000  Level FlightAware
Fri 07:25:45 AM 40.2580 10.6150 102° East 495 570 35,000  Level FlightAware
Fri 07:26:20 AM 40.2410 10.7200 102° East 495 570 35,000  Level FlightAware
Fri 07:27:01 AM 40.2230 10.8350 102° East 494 568 35,000  Level FlightAware
Fri 07:27:35 AM 40.2060 10.9390 102° East 494 568 35,000  Level FlightAware
Fri 07:28:10 AM 40.1890 11.0410 102° East 493 567 35,000  Level FlightAware
Fri 07:28:35 AM 40.1760 11.1150 103° East 494 568 35,000  Level FlightAware
Fri 07:29:11 AM 40.1590 11.2170 102° East 494 568 35,000  Level FlightAware
Fri 07:29:46 AM 40.1410 11.3210 103° East 495 570 35,000  Level FlightAware
Fri 07:30:21 AM 40.1240 11.4210 103° East 495 570 35,000  Level FlightAware
Fri 07:30:56 AM 40.1050 11.5270 103° East 495 570 35,000  Level FlightAware
Fri 07:31:37 AM 40.0850 11.6460 102° East 496 571 35,000  Level FlightAware
Fri 07:32:12 AM 40.0670 11.7490 103° East 497 572 35,000  Level FlightAware
Fri 07:32:47 AM 40.0490 11.8510 103° East 496 571 35,000  Level FlightAware
Fri 07:33:22 AM 40.0300 11.9580 103° East 496 571 35,000  Level FlightAware
Fri 07:33:58 AM 40.0130 12.0580 102° East 496 571 35,000  Level FlightAware
Fri 07:34:34 AM 39.9930 12.1670 103° East 496 571 35,000  Level FlightAware
Fri 07:35:10 AM 39.9750 12.2700 103° East 497 572 35,000  Level FlightAware
Fri 07:35:42 AM 39.9580 12.3640 103° East 497 572 35,000  Level FlightAware
Fri 07:36:19 AM 39.9380 12.4720 104° East 497 572 35,000  Level FlightAware
Fri 07:36:54 AM 39.9190 12.5750 103° East 497 572 35,000  Level FlightAware
Fri 07:37:30 AM 39.9010 12.6760 103° East 497 572 35,000  Level FlightAware
Fri 07:38:02 AM 39.8830 12.7700 104° East 497 572 35,000  Level FlightAware
Fri 07:38:36 AM 39.8650 12.8680 103° East 497 572 35,000  Level FlightAware
Fri 07:39:13 AM 39.8450 12.9790 103° East 498 573 35,000  Level FlightAware
Fri 07:39:49 AM 39.8250 13.0840 104° East 498 573 35,000  Level FlightAware
Fri 07:40:25 AM 39.8050 13.1880 104° East 497 572 35,000  Level FlightAware
Fri 07:40:57 AM 39.7880 13.2810 103° East 496 571 35,000  Level FlightAware
Fri 07:41:33 AM 39.7680 13.3860 104° East 495 570 35,000  Level FlightAware
Fri 07:42:07 AM 39.7500 13.4810 104° East 495 570 35,000  Level FlightAware
Fri 07:42:45 AM 39.7280 13.5920 104° East 495 570 35,000  Level FlightAware
Fri 07:43:17 AM 39.7100 13.6860 104° East 494 568 35,000  Level FlightAware
Fri 07:43:53 AM 39.6900 13.7890 104° East 494 568 35,000  Level FlightAware
Fri 07:44:31 AM 39.6690 13.8970 104° East 494 568 35,000  Level FlightAware
Fri 07:45:03 AM 39.6510 13.9900 104° East 494 568 35,000  Level FlightAware
Fri 07:45:39 AM 39.6310 14.0910 104° East 494 568 35,000  Level FlightAware
Fri 07:46:15 AM 39.6100 14.1960 105° East 493 567 35,000  Level FlightAware
Fri 07:46:51 AM 39.5900 14.3000 104° East 492 566 35,000  Level FlightAware
Fri 07:47:23 AM 39.5710 14.3910 105° East 492 566 35,000  Level FlightAware
Fri 07:47:53 AM 39.5540 14.4780 104° East 492 566 35,000  Level FlightAware
Fri 07:48:35 AM 39.5300 14.5940 105° East 492 566 35,000  Level FlightAware
Fri 07:49:08 AM 39.5110 14.6870 105° East 492 566 35,000  Level FlightAware
Fri 07:49:44 AM 39.4920 14.7810 105° East 491 565 35,000  Level FlightAware
Fri 07:50:15 AM 39.4760 14.8630 104° East 491 565 35,000  Level FlightAware
Fri 07:50:50 AM 39.4510 14.9780 106° East 489 563 35,000  Level FlightAware
Fri 07:51:30 AM 39.4280 15.0900 105° East 490 564 35,000  Level FlightAware
Fri 07:52:01 AM 39.4110 15.1720 105° East 490 564 35,000  Level FlightAware
Fri 07:52:39 AM 39.3870 15.2840 105° East 490 564 35,000  Level FlightAware
Fri 07:53:11 AM 39.3670 15.3780 105° East 491 565 35,000  Level FlightAware
Fri 07:53:47 AM 39.3470 15.4760 105° East 491 565 35,000  Level FlightAware
Fri 07:54:25 AM 39.3230 15.5860 106° East 490 564 35,000  Level FlightAware
Fri 07:54:57 AM 39.3040 15.6750 105° East 490 564 35,000  Level FlightAware
Fri 07:55:33 AM 39.2830 15.7760 105° East 489 563 35,000  Level FlightAware
Fri 07:56:10 AM 39.2610 15.8770 106° East 490 564 35,000  Level FlightAware
Fri 07:56:41 AM 39.2410 15.9660 106° East 489 563 35,000  Level FlightAware
Fri 07:57:13 AM 39.2220 16.0530 106° East 489 563 35,000  Level FlightAware
Fri 07:57:55 AM 39.1960 16.1740 105° East 489 563 35,000  Level FlightAware
Fri 07:58:29 AM 39.1740 16.2720 106° East 489 563 35,000  Level FlightAware
Fri 07:59:05 AM 39.1520 16.3710 106° East 489 563 35,000  Level FlightAware
Fri 07:59:41 AM 39.1290 16.4710 106° East 489 563 35,000  Level FlightAware
Fri 08:00:13 AM 39.1090 16.5650 105° East 491 565 35,000  Level FlightAware
Fri 08:00:49 AM 39.0860 16.6630 107° East 492 566 35,000  Level FlightAware
Fri 08:01:25 AM 39.0630 16.7650 106° East 492 566 35,000  Level FlightAware
Fri 08:01:57 AM 39.0430 16.8560 106° East 493 567 35,000  Level FlightAware
Fri 08:02:36 AM 39.0190 16.9620 106° East 493 567 35,000  Level FlightAware
Fri 08:03:11 AM 38.9950 17.0640 107° East 495 570 35,000  Level FlightAware
Fri 08:03:43 AM 38.9750 17.1540 106° East 496 571 35,000  Level FlightAware
Fri 08:04:17 AM 38.9520 17.2500 107° East 496 571 35,000  Level FlightAware
Fri 08:04:55 AM 38.9270 17.3580 107° East 497 572 35,000  Level FlightAware
Fri 08:05:31 AM 38.9040 17.4600 106° East 497 572 35,000  Level FlightAware
Fri 08:06:03 AM 38.8820 17.5510 107° East 497 572 35,000  Level FlightAware
Fri 08:06:41 AM 38.8570 17.6590 107° East 498 573 35,000  Level FlightAware
Fri 08:07:15 AM 38.8340 17.7550 107° East 498 573 35,000  Level FlightAware
Fri 08:07:49 AM 38.8120 17.8480 107° East 499 574 35,000  Level FlightAware
Fri 08:08:25 AM 38.7870 17.9510 107° East 501 577 35,000  Level FlightAware
Fri 08:09:01 AM 38.7630 18.0540 107° East 501 577 35,000  Level FlightAware
Fri 08:09:37 AM 38.7380 18.1570 107° East 502 578 35,000  Level FlightAware
Fri 08:10:09 AM 38.7160 18.2460 108° East 502 578 35,000  Level FlightAware
Fri 08:10:47 AM 38.6900 18.3550 107° East 502 578 35,000  Level FlightAware
Fri 08:11:21 AM 38.6670 18.4500 107° East 502 578 35,000  Level FlightAware
Fri 08:11:54 AM 38.6480 18.5240 108° East 503 579 35,000  Level FlightAware
Fri 08:12:28 AM 38.6200 18.6400 107° East 504 580 35,000  Level FlightAware
Fri 08:13:05 AM 38.5940 18.7470 107° East 505 581 35,000  Level FlightAware
Fri 08:13:41 AM 38.5680 18.8500 108° East 505 581 35,000  Level FlightAware
Fri 08:14:23 AM 38.5480 18.9300 108° East 505 581 35,000  Level FlightAware
Fri 08:15:10 AM 38.5230 19.0350 107° East 505 581 35,000  Level FlightAware
Fri 08:15:46 AM 38.5020 19.1230 107° East 505 581 35,000  Level FlightAware
Fri 08:16:22 AM 38.4810 19.2100 107° East 505 581 35,000  Level FlightAware
Fri 08:16:50 AM 38.4290 19.3460 116° Southeast 507 583 35,000  Level FlightAware
Fri 08:17:27 AM 38.3970 19.4500 111° Southeast 506 582 35,000  Level FlightAware
Fri 08:17:59 AM 38.3740 19.5280 111° Southeast 506 582 35,000  Level FlightAware
Fri 08:18:39 AM 38.3400 19.6380 111° Southeast 504 580 35,000  Level FlightAware
Fri 08:19:24 AM 38.3010 19.7670 111° Southeast 503 579 35,000  Level FlightAware
Fri 08:19:56 AM 38.2750 19.8540 111° Southeast 501 577 35,000  Level FlightAware
Fri 08:20:28 AM 38.2460 19.9450 112° Southeast 499 574 35,000  Level FlightAware
Fri 08:21:08 AM 38.2110 20.0600 111° Southeast 498 573 35,000  Level FlightAware
Fri 08:21:46 AM 38.1850 20.1480 111° Southeast 498 573 35,000  Level FlightAware
Fri 08:22:22 AM 38.1590 20.2320 111° Southeast 498 573 35,000  Level FlightAware
Fri 08:23:02 AM 38.1310 20.3250 111° Southeast 498 573 35,000  Level FlightAware
Fri 08:23:39 AM 38.1050 20.4110 111° Southeast 498 573 35,000  Level FlightAware
Fri 08:24:15 AM 38.0800 20.4940 111° Southeast 498 573 35,000  Level FlightAware
Fri 08:24:52 AM 38.0540 20.5800 111° Southeast 498 573 35,000  Level FlightAware
Fri 08:25:34 AM 37.9780 20.8140 112° Southeast 502 578 35,000  Level FlightAware
Fri 08:26:19 AM 37.9380 20.9370 112° Southeast 505 581 35,000  Level FlightAware
Fri 08:27:05 AM 37.9050 21.0420 112° Southeast 505 581 35,000  Level FlightAware
Fri 08:27:40 AM 37.8650 21.1630 113° Southeast 507 583 35,000  Level FlightAware
Fri 08:28:17 AM 37.8380 21.2500 111° Southeast 507 583 35,000  Level FlightAware
Fri 08:28:51 AM 37.8020 21.3570 113° Southeast 509 586 35,000  Level FlightAware
Fri 08:29:33 AM 37.7650 21.4730 112° Southeast 509 586 35,000  Level FlightAware
Fri 08:30:09 AM 37.7320 21.5740 112° Southeast 509 586 35,000  Level FlightAware
Fri 08:30:39 AM 37.7080 21.6480 112° Southeast 509 586 35,000  Level FlightAware
Fri 08:31:15 AM 37.6750 21.7490 112° Southeast 509 586 35,000  Level FlightAware
Fri 08:31:50 AM 37.6460 21.8380 112° Southeast 510 587 35,000  Level FlightAware
Fri 08:32:26 AM 37.6130 21.9400 112° Southeast 510 587 35,000  Level FlightAware
Fri 08:33:06 AM 37.5800 22.0400 113° Southeast 511 588 35,000  Level FlightAware
Fri 08:33:43 AM 37.5520 22.1270 112° Southeast 511 588 35,000  Level FlightAware
Fri 08:34:18 AM 37.5090 22.2550 113° Southeast 510 587 35,000  Level FlightAware
Fri 08:34:56 AM 37.4740 22.3600 113° Southeast 511 588 35,000  Level FlightAware
Fri 08:35:40 AM 37.4330 22.4850 112° Southeast 512 589 35,000  Level FlightAware
Fri 08:36:09 AM 37.4120 22.5460 113° Southeast 511 588 35,000  Level FlightAware
Fri 08:36:46 AM 37.3750 22.6590 112° Southeast 509 586 35,000  Level FlightAware
Fri 08:37:23 AM 37.3430 22.7530 113° Southeast 510 587 35,000  Level FlightAware
Fri 08:37:51 AM 37.3150 22.8360 113° Southeast 509 586 35,000  Level FlightAware
Fri 08:38:23 AM 37.2870 22.9190 113° Southeast 510 587 35,000  Level FlightAware
Fri 08:39:00 AM 37.2500 23.0250 114° Southeast 511 588 35,000  Level FlightAware
Fri 08:39:41 AM 37.2130 23.1350 113° Southeast 512 589 35,000  Level FlightAware
Fri 08:40:23 AM 37.1700 23.2600 113° Southeast 516 594 35,000  Level FlightAware
Fri 08:40:56 AM 37.1410 23.3450 113° Southeast 515 593 35,000  Level FlightAware
Fri 08:41:35 AM 37.1020 23.4580 113° Southeast 516 594 35,000  Level FlightAware
Fri 08:42:07 AM 37.0720 23.5450 113° Southeast 516 594 35,000  Level FlightAware
Fri 08:42:43 AM 37.0380 23.6430 113° Southeast 518 596 35,000  Level FlightAware
Fri 08:43:19 AM 37.0030 23.7430 114° Southeast 519 597 35,000  Level FlightAware
Fri 08:43:53 AM 36.9710 23.8380 113° Southeast 521 600 35,000  Level FlightAware
Fri 08:44:31 AM 36.9340 23.9450 113° Southeast 522 601 35,000  Level FlightAware
Fri 08:45:03 AM 36.9040 24.0320 113° Southeast 522 601 35,000  Level FlightAware
Fri 08:45:39 AM 36.8700 24.1310 113° Southeast 524 603 35,000  Level FlightAware
Fri 08:46:15 AM 36.8350 24.2310 114° Southeast 524 603 35,000  Level FlightAware
Fri 08:46:49 AM 36.8010 24.3270 114° Southeast 526 605 35,000  Level FlightAware
Fri 08:47:27 AM 36.7640 24.4330 114° Southeast 526 605 35,000  Level FlightAware
Fri 08:47:59 AM 36.7340 24.5180 114° Southeast 527 606 35,000  Level FlightAware
Fri 08:48:36 AM 36.6980 24.6200 114° Southeast 527 606 35,000  Level FlightAware
Fri 08:49:08 AM 36.6650 24.7110 114° Southeast 528 608 35,000  Level FlightAware
Fri 08:49:43 AM 36.6310 24.8070 114° Southeast 528 608 35,000  Level FlightAware
Fri 08:50:21 AM 36.5920 24.9140 114° Southeast 529 609 35,000  Level FlightAware
Fri 08:50:53 AM 36.5590 25.0030 115° Southeast 528 608 35,000  Level FlightAware
Fri 08:51:29 AM 36.5220 25.1030 115° Southeast 527 606 35,000  Level FlightAware
Fri 08:52:05 AM 36.4860 25.2020 114° Southeast 527 606 35,000  Level FlightAware
Fri 08:52:31 AM 36.4600 25.2730 114° Southeast 527 606 35,000  Level FlightAware
Fri 08:53:07 AM 36.4230 25.3730 115° Southeast 527 606 35,000  Level FlightAware
Fri 08:53:43 AM 36.3870 25.4720 114° Southeast 526 605 35,000  Level FlightAware
Fri 08:54:13 AM 36.3560 25.5550 115° Southeast 526 605 35,000  Level FlightAware
Fri 08:54:52 AM 36.3170 25.6600 115° Southeast 526 605 35,000  Level FlightAware
Fri 08:55:25 AM 36.2840 25.7500 114° Southeast 527 606 35,000  Level FlightAware
Fri 08:56:05 AM 36.2430 25.8590 115° Southeast 526 605 35,000  Level FlightAware
Fri 08:56:37 AM 36.2100 25.9490 114° Southeast 527 606 35,000  Level FlightAware
Fri 08:57:13 AM 36.1730 26.0470 115° Southeast 527 606 35,000  Level FlightAware
Fri 08:57:49 AM 36.1360 26.1470 115° Southeast 527 606 35,000  Level FlightAware
Fri 08:58:25 AM 36.0990 26.2440 115° Southeast 527 606 35,000  Level FlightAware
Fri 08:58:57 AM 36.0660 26.3310 115° Southeast 527 606 35,000  Level FlightAware
Fri 08:59:29 AM 36.0330 26.4190 115° Southeast 527 606 35,000  Level FlightAware
Fri 08:59:57 AM 36.0040 26.4960 115° Southeast 527 606 35,000  Level FlightAware
Fri 09:00:46 AM 35.9650 26.5980 115° Southeast 526 605 35,000  Level FlightAware
Fri 09:01:21 AM 35.9170 26.7220 116° Southeast 527 606 35,000  Level FlightAware
Fri 09:01:54 AM 35.8840 26.8080 115° Southeast 526 605 35,000  Level FlightAware
Fri 09:02:31 AM 35.8470 26.9060 115° Southeast 527 606 35,000  Level FlightAware
Fri 09:03:23 AM 35.8050 27.0120 116° Southeast 527 606 35,000  Level FlightAware
Fri 09:04:05 AM 35.7550 27.1430 115° Southeast 528 608 35,000  Level FlightAware
Fri 09:04:41 AM 35.7240 27.2260 115° Southeast 528 608 35,000  Level FlightAware
Fri 09:05:17 AM 35.6920 27.3100 115° Southeast 528 608 35,000  Level FlightAware
Fri 09:05:54 AM 35.6600 27.3950 115° Southeast 528 608 35,000  Level FlightAware
Fri 09:06:31 AM 35.6270 27.4810 115° Southeast 528 608 35,000  Level FlightAware
Fri 09:07:07 AM 35.5950 27.5640 115° Southeast 528 608 35,000  Level FlightAware
Fri 09:07:43 AM 35.5640 27.6480 114° Southeast 528 608 35,000  Level FlightAware
Fri 09:08:31 AM 35.5220 27.7590 115° Southeast 528 608 35,000  Level FlightAware
Fri 09:09:01 AM 35.4350 27.9470 120° Southeast 35,000  Level FlightAware
Fri 09:10:02 AM 35.3630 28.1270 116° Southeast 527 606 35,000  Level FlightAware
Fri 09:10:38 AM 35.3220 28.2280 116° Southeast 527 606 35,000  Level FlightAware
Fri 09:11:10 AM 35.2880 28.3140 116° Southeast 527 606 35,000  Level FlightAware
Fri 09:11:45 AM 35.2550 28.3940 117° Southeast 527 606 35,000  Level FlightAware
Fri 09:12:22 AM 35.2170 28.4880 116° Southeast 528 608 35,000  Level FlightAware
Fri 09:13:00 AM 35.1690 28.6060 116° Southeast 528 608 35,000  Level FlightAware
Fri 09:13:40 AM 35.1330 28.6970 116° Southeast 528 608 35,000  Level FlightAware
Fri 09:14:16 AM 35.1000 28.7790 116° Southeast 528 608 35,000  Level FlightAware
Fri 09:14:52 AM 35.0670 28.8610 116° Southeast 528 608 35,000  Level FlightAware
Fri 09:15:32 AM 35.0090 28.9980 117° Southeast 528 608 35,000  Level FlightAware
Fri 09:16:08 AM 34.9760 29.0800 116° Southeast 528 608 35,000  Level FlightAware
Fri 09:16:44 AM 34.9430 29.1620 116° Southeast 528 608 35,000  Level FlightAware
Fri 09:17:20 AM 34.9100 29.2440 116° Southeast 528 608 35,000  Level FlightAware
Fri 09:17:56 AM 34.8490 29.3790 119° Southeast 527 606 35,000  Level FlightAware
Fri 09:18:45 AM 34.7940 29.5100 117° Southeast 525 604 35,000  Level FlightAware
Fri 09:19:24 AM 34.7540 29.6050 117° Southeast 525 604 35,000  Level FlightAware
Fri 09:19:56 AM 34.7140 29.6980 118° Southeast 522 601 35,000  Level FlightAware
Fri 09:20:28 AM 34.6830 29.7730 117° Southeast 522 601 35,000  Level FlightAware
Fri 09:21:07 AM 34.6370 29.8810 117° Southeast 523 602 35,000  Level FlightAware
Fri 09:21:42 AM 34.6020 29.9640 117° Southeast 524 603 35,000  Level FlightAware
Fri 09:22:14 AM 34.5620 30.0490 120° Southeast 524 603 35,000  Level FlightAware
Fri 09:22:50 AM 34.5140 30.1420 122° Southeast 518 596 35,000  Level FlightAware
Fri 09:23:26 AM 34.4700 30.2300 121° Southeast 519 597 35,000  Level FlightAware
Fri 09:23:58 AM 34.4240 30.3230 121° Southeast 519 597 35,000  Level FlightAware
Fri 09:24:37 AM 34.3800 30.4140 120° Southeast 517 595 35,000  Level FlightAware
Fri 09:25:13 AM 34.3320 30.5120 121° Southeast 514 592 35,000  Level FlightAware
Fri 09:25:48 AM 34.2930 30.5930 120° Southeast 513 590 35,000  Level FlightAware
Fri 09:26:19 AM 34.2530 30.6730 121° Southeast 513 590 35,000  Level FlightAware
Fri 09:26:54 AM 34.2090 30.7640 120° Southeast 517 595 35,000  Level FlightAware
Fri 09:27:31 AM 34.1660 30.8520 121° Southeast 516 594 35,000  Level FlightAware
Fri 09:28:05 AM 34.1250 30.9370 120° Southeast 515 593 35,000  Level FlightAware
Fri 09:28:40 AM 34.0850 31.0170 121° Southeast 514 592 35,000  Level FlightAware
Fri 09:29:15 AM 34.0380 31.1130 121° Southeast 513 590 35,000  Level FlightAware
Fri 09:29:46 AM 34.0040 31.1840 120° Southeast 511 588 35,000  Level FlightAware
Fri 09:30:21 AM 33.9580 31.2750 121° Southeast 511 588 35,000  Level FlightAware
Fri 09:31:07 AM 33.9070 31.3810 120° Southeast 511 588 35,000  Level FlightAware
Fri 09:31:41 AM 33.8620 31.4720 121° Southeast 511 588 35,000  Level FlightAware
Fri 09:32:17 AM 33.8210 31.5560 120° Southeast 510 587 35,000  Level FlightAware
Fri 09:32:52 AM 33.7770 31.6440 121° Southeast 509 586 35,000  Level FlightAware
Fri 09:33:23 AM 33.7400 31.7200 120° Southeast 508 585 35,000  Level FlightAware
Fri 09:34:02 AM 33.6980 31.8050 121° Southeast 507 583 35,000  Level FlightAware
Fri 09:34:38 AM 33.6500 31.9000 121° Southeast 507 583 35,000  Level FlightAware
Fri 09:35:14 AM 33.6070 31.9860 121° Southeast 506 582 35,000  Level FlightAware
Fri 09:35:50 AM 33.5630 32.0740 121° Southeast 504 580 35,000  Level FlightAware
Fri 09:36:20 AM 33.5280 32.1430 121° Southeast 504 580 35,000  Level FlightAware
Fri 09:36:56 AM 33.4840 32.2290 122° Southeast 502 578 35,000 -182 Level FlightAware
Fri 09:37:26 AM 33.4460 32.3040 121° Southeast 495 570 34,800 -833 Descending FlightAware
Fri 09:38:08 AM 33.4010 32.3930 121° Southeast 485 558 34,000 -1,325 Descending FlightAware
Fri 09:38:43 AM 33.3560 32.4810 121° Southeast 482 555 33,100 -1,273 Descending FlightAware
Fri 09:39:14 AM 33.3250 32.5410 122° Southeast 478 550 32,600 -1,114 Descending FlightAware
Fri 09:39:53 AM 33.2790 32.6320 121° Southeast 477 549 31,800 -1,360 Descending FlightAware
Fri 09:40:29 AM 33.2320 32.7250 121° Southeast 473 544 30,900 -1,421 Descending FlightAware
Fri 09:41:09 AM 33.1880 32.8110 121° Southeast 470 541 30,000 -1,231 Descending FlightAware
Fri 09:41:47 AM 33.1480 32.8880 122° Southeast 467 537 29,300 -1,139 Descending FlightAware
Fri 09:42:28 AM 33.1010 32.9800 121° Southeast 463 533 28,500 -1,184 Descending FlightAware
Fri 09:43:03 AM 33.0630 33.0540 121° Southeast 459 528 27,800 -1,091 Descending FlightAware
Fri 09:43:56 AM 33.0040 33.1680 122° Southeast 452 520 26,900 -1,097 Descending FlightAware
Fri 09:44:36 AM 32.9600 33.2550 121° Southeast 442 509 26,100 -1,630 Descending FlightAware
Fri 09:45:17 AM 32.9140 33.3430 122° Southeast 432 497 24,700 -1,973 Descending FlightAware
Fri 09:45:49 AM 32.8810 33.4070 122° Southeast 421 484 23,700 -1,886 Descending FlightAware
Fri 09:46:27 AM 32.8420 33.4810 122° Southeast 409 471 22,500 -1,833 Descending FlightAware
Fri 09:47:01 AM 32.8090 33.5450 122° Southeast 399 459 21,500 -1,800 Descending FlightAware
Fri 09:47:37 AM 32.7750 33.6110 121° Southeast 387 445 20,400 -1,853 Descending FlightAware
Fri 09:48:09 AM 32.7440 33.6710 122° Southeast 379 436 19,400 -1,714 Descending FlightAware
Fri 09:48:47 AM 32.7110 33.7350 121° Southeast 369 425 18,400 -1,629 Descending FlightAware
Fri 09:49:19 AM 32.6820 33.7900 122° Southeast 360 414 17,500 -1,714 Descending FlightAware
Fri 09:49:57 AM 32.6490 33.8530 122° Southeast 351 404 16,400 -1,629 Descending FlightAware
Fri 09:50:29 AM 32.6210 33.9060 122° Southeast 344 396 15,600 -1,522 Descending FlightAware
Fri 09:51:04 AM 32.5930 33.9610 121° Southeast 352 405 14,700 -1,417 Descending FlightAware
Fri 09:51:41 AM 32.5600 34.0230 122° Southeast 356 410 13,900 -1,268 Descending FlightAware
Fri 09:52:15 AM 32.5310 34.0800 121° Southeast 341 392 13,200 -1,250 Descending FlightAware
Fri 09:52:53 AM 32.5000 34.1390 122° Southeast 326 375 12,400 -1,254 Descending FlightAware
Fri 09:53:22 AM 32.4750 34.1800 126° Southeast 317 365 11,800 -1,455 Descending FlightAware
Fri 09:53:59 AM 32.4370 34.2260 134° Southeast 315 362 10,800 -1,397 Descending FlightAware
Fri 09:54:35 AM 32.4030 34.2650 136° Southeast 308 354 10,100 -973 Descending FlightAware
Fri 09:55:13 AM 32.3690 34.3050 135° Southeast 293 337 9,600 -906 Descending FlightAware
Fri 09:55:28 AM 32.3510 34.3260 135° Southeast 284 327 9,300 -1,385 Descending FlightAware
Fri 09:55:52 AM 32.3320 34.3490 134° Southeast 287 330 8,700 -1,467 Descending FlightAware
Fri 09:56:13 AM 32.3100 34.3760 134° Southeast 284 327 8,200 -1,371 Descending FlightAware
Fri 09:56:27 AM 32.2960 34.3920 136° Southeast 284 327 7,900 -1,067 Descending FlightAware
Fri 09:56:58 AM 32.2690 34.4260 133° Southeast 274 315 7,400 -1,200 Descending FlightAware
Fri 09:57:17 AM 32.2500 34.4480 136° Southeast 272 313 6,900 -1,241 Descending FlightAware
Fri 09:57:27 AM 32.2430 34.4570 133° Southeast 272 313 6,800 -1,167 Descending FlightAware
Fri 09:57:53 AM 32.2250 34.4880 124° Southeast 270 311 6,200 -1,304 Descending FlightAware
Fri 09:58:13 AM 32.2120 34.5140 121° Southeast 269 310 5,800 -1,227 Descending FlightAware
Fri 09:58:37 AM 32.1980 34.5410 121° Southeast 268 308 5,300 -700 Descending FlightAware
Fri 09:59:13 AM 32.1730 34.5880 122° Southeast 270 311 5,100 -92 Descending FlightAware
Fri 09:59:42 AM 32.1520 34.6270 122° Southeast 271 312 5,200  Climbing FlightAware
Fri 09:59:53 AM 32.1460 34.6390 121° Southeast 268 308 5,100  Descending FlightAware
Fri 10:00:22 AM 32.1270 34.6730 123° Southeast 259 298 5,200 118 Climbing FlightAware
Fri 10:00:44 AM 32.1130 34.6980 123° Southeast 244 281 5,200  Level FlightAware
Fri 10:01:27 AM 32.0900 34.7420 122° Southeast 238 274 5,200 -85 Level FlightAware
Fri 10:01:55 AM 32.0690 34.7760 126° Southeast 236 272 5,100 -500 Descending FlightAware
Fri 10:02:15 AM 32.0530 34.7940 136° Southeast 228 262 4,800 -667 Descending FlightAware
Fri 10:02:31 AM 32.0430 34.8050 137° Southeast 221 254 4,700 -293 Descending FlightAware
Fri 10:02:56 AM 32.0250 34.8250 137° Southeast 209 241 4,600 -109 Descending FlightAware
Fri 10:03:26 AM 32.0060 34.8480 134° Southeast 187 215 4,600 -533 Level FlightAware
Fri 10:03:41 AM 31.9960 34.8590 137° Southeast 185 213 4,200 -1,448 Descending FlightAware
Fri 10:03:55 AM 31.9870 34.8720 129° Southeast 186 214 3,900 -1,154 Descending FlightAware
Fri 10:04:07 AM 31.9850 34.8780 111° Southeast 186 214 3,700 -1,429 Descending FlightAware
Fri 10:04:37 AM 31.9890 34.9100 82° East 185 213 2,900 -1,364 Descending FlightAware
Fri 10:04:51 AM 31.9920 34.9220 74° East 181 208 2,700 -947 Descending FlightAware
Fri 10:05:15 AM 31.9980 34.9460 74° East 177 204 2,300 -1,029 Descending FlightAware
Fri 10:05:26 AM 32.0030 34.9550 57° Northeast 177 204 2,100 -960 Descending FlightAware
Fri 10:05:40 AM 32.0140 34.9620 28° Northeast 171 197 1,900 -878 Descending FlightAware
Fri 10:06:07 AM 32.0330 34.9580 350° North 163 188 1,500 -774 Descending FlightAware
Fri 10:06:11 AM 32.0350 34.9560 320° Northwest 163 188 1,500 -968 Level FlightAware
Fri 10:06:38 AM 32.0400 34.9360 286° West 157 181 1,000 -955 Descending FlightAware
Fri 10:06:55 AM 32.0370 34.9190 258° West 157 181 800 -286 Descending FlightAware
Fri 10:07:20 AM 32.0340 34.9010 259° West 157 181 800  Level FlightAware

Login

Don't have an account? Register now (free) for customized features, flight alerts, and more!